createdAt,value
2023-03-07T00:01:27.395Z,0.53
2023-03-07T00:03:56.381Z,1.00
2023-03-07T00:06:25.822Z,0.70
2023-03-07T00:08:56.489Z,1.03
2023-03-07T00:11:25.381Z,0.83
2023-03-07T00:13:54.449Z,0.60
2023-03-07T00:16:26.007Z,0.53
2023-03-07T00:18:55.591Z,0.50
2023-03-07T00:21:24.218Z,0.47
2023-03-07T00:23:54.262Z,0.90
2023-03-07T00:26:24.146Z,1.33
2023-03-07T00:28:54.676Z,0.83
2023-03-07T00:31:25.261Z,1.57
2023-03-07T00:33:53.975Z,0.80
2023-03-07T00:36:23.829Z,0.80
2023-03-07T00:38:53.006Z,0.70
2023-03-07T00:41:23.186Z,0.67
2023-03-07T00:43:52.127Z,1.10
2023-03-07T00:46:23.631Z,1.20
2023-03-07T00:48:52.249Z,0.50
2023-03-07T00:51:22.246Z,0.90
2023-03-07T00:53:51.574Z,0.80
2023-03-07T00:56:21.583Z,0.63
2023-03-07T00:58:50.829Z,0.67
2023-03-07T01:01:21.688Z,0.93
2023-03-07T01:03:53.716Z,0.57
2023-03-07T01:06:24.654Z,0.87
2023-03-07T01:08:53.438Z,1.07
2023-03-07T01:11:21.973Z,1.17
2023-03-07T01:13:50.566Z,1.00
2023-03-07T01:16:20.928Z,1.63
2023-03-07T01:18:53.412Z,0.70
2023-03-07T01:21:24.397Z,0.97
2023-03-07T01:23:53.388Z,0.80
2023-03-07T01:26:24.214Z,0.80
2023-03-07T01:28:55.219Z,0.80
2023-03-07T01:31:24.368Z,0.80
2023-03-07T01:33:55.220Z,0.90
2023-03-07T01:36:29.913Z,0.60
2023-03-07T01:39:02.452Z,0.90
2023-03-07T01:41:32.447Z,0.67
2023-03-07T01:44:02.314Z,1.33
2023-03-07T01:46:48.749Z,0.93
2023-03-07T01:49:26.037Z,1.03
2023-03-07T01:51:59.633Z,0.73
2023-03-07T01:54:28.753Z,0.67
2023-03-07T01:56:58.776Z,0.77
2023-03-07T01:59:36.541Z,0.90
2023-03-07T02:02:08.723Z,0.60
2023-03-07T02:04:44.376Z,0.80
2023-03-07T02:07:14.048Z,0.90
2023-03-07T02:09:44.559Z,1.37
2023-03-07T02:12:14.827Z,1.27
2023-03-07T02:14:45.712Z,0.70
2023-03-07T02:17:14.467Z,0.57
2023-03-07T02:19:58.783Z,0.70
2023-03-07T02:22:28.527Z,0.80
2023-03-07T02:25:02.191Z,0.87
2023-03-07T02:27:35.133Z,1.00
2023-03-07T02:30:04.064Z,0.67
2023-03-07T02:32:32.879Z,1.53
2023-03-07T02:35:01.485Z,1.33
2023-03-07T02:37:35.224Z,0.93
2023-03-07T02:40:07.813Z,1.57
2023-03-07T02:42:41.939Z,1.13
2023-03-07T02:45:13.016Z,0.93
2023-03-07T02:47:41.993Z,1.20
2023-03-07T02:50:11.805Z,1.53
2023-03-07T02:52:41.103Z,1.10
2023-03-07T02:55:10.563Z,0.87
2023-03-07T02:57:40.488Z,0.90
2023-03-07T03:00:11.935Z,2.20
2023-03-07T03:02:40.480Z,1.57
2023-03-07T03:05:09.741Z,1.83
2023-03-07T03:07:38.548Z,2.40
2023-03-07T03:10:08.499Z,1.50
2023-03-07T03:12:37.165Z,0.97
2023-03-07T03:15:08.694Z,1.40
2023-03-07T03:17:37.594Z,1.47
2023-03-07T03:20:08.889Z,0.73
2023-03-07T03:22:37.416Z,1.47
2023-03-07T03:25:08.208Z,1.37
2023-03-07T03:27:37.140Z,1.60
2023-03-07T03:30:09.455Z,0.77
2023-03-07T03:32:39.410Z,1.17
2023-03-07T03:35:09.176Z,0.80
2023-03-07T03:37:37.646Z,1.40
2023-03-07T03:40:14.110Z,0.90
2023-03-07T03:42:43.384Z,0.97
2023-03-07T03:45:15.802Z,1.10
2023-03-07T03:47:44.382Z,0.93
2023-03-07T03:50:13.342Z,0.90
2023-03-07T03:52:45.020Z,1.33
2023-03-07T03:55:13.615Z,1.47
2023-03-07T03:57:42.150Z,1.07
2023-03-07T04:00:15.842Z,0.63
2023-03-07T04:02:44.425Z,0.73
2023-03-07T04:05:13.612Z,1.23
2023-03-07T04:07:42.230Z,1.30
2023-03-07T04:10:11.795Z,1.83
2023-03-07T04:12:40.353Z,1.60
2023-03-07T04:15:10.033Z,1.67
2023-03-07T04:17:40.002Z,1.50
2023-03-07T04:20:17.324Z,1.30
2023-03-07T04:22:46.173Z,1.63
2023-03-07T04:25:14.796Z,1.63
2023-03-07T04:27:43.300Z,0.80
2023-03-07T04:30:12.802Z,1.67
2023-03-07T04:32:43.521Z,1.30
2023-03-07T04:35:12.252Z,1.50
2023-03-07T04:37:40.742Z,0.60
2023-03-07T04:40:10.374Z,1.40
2023-03-07T04:42:38.919Z,1.73
2023-03-07T04:45:08.581Z,1.60
2023-03-07T04:47:37.188Z,0.90
2023-03-07T04:50:08.404Z,0.93
2023-03-07T04:52:36.965Z,1.43
2023-03-07T04:55:05.866Z,1.17
2023-03-07T04:57:34.379Z,1.23
2023-03-07T05:00:03.324Z,1.47
2023-03-07T05:02:31.877Z,1.37
2023-03-07T05:05:03.163Z,1.30
2023-03-07T05:07:33.245Z,2.00
2023-03-07T05:10:01.871Z,1.27
2023-03-07T05:12:30.430Z,0.83
2023-03-07T05:15:00.774Z,1.60
2023-03-07T05:17:30.647Z,1.27
2023-03-07T05:19:59.206Z,1.30
2023-03-07T05:22:27.708Z,0.60
2023-03-07T05:24:58.429Z,0.63
2023-03-07T05:27:26.928Z,1.70
2023-03-07T05:29:55.440Z,2.00
2023-03-07T05:32:24.028Z,1.40
2023-03-07T05:34:52.655Z,1.10
2023-03-07T05:37:21.230Z,0.83
2023-03-07T05:39:49.831Z,1.27
2023-03-07T05:42:19.782Z,0.70
2023-03-07T05:44:48.314Z,1.37
2023-03-07T05:47:16.887Z,1.37
2023-03-07T05:49:45.642Z,1.30
2023-03-07T05:52:14.175Z,1.17
2023-03-07T05:54:42.692Z,1.13
2023-03-07T05:57:11.195Z,1.33
2023-03-07T05:59:41.075Z,2.07
2023-03-07T06:02:09.669Z,1.93
2023-03-07T06:04:39.300Z,2.83
2023-03-07T06:07:07.879Z,1.20
2023-03-07T06:09:36.434Z,1.33
2023-03-07T06:12:05.353Z,1.40
2023-03-07T06:14:34.159Z,1.97
2023-03-07T06:17:05.352Z,1.50
2023-03-07T06:19:34.115Z,0.80
2023-03-07T06:22:02.809Z,0.80
2023-03-07T06:24:31.378Z,1.03
2023-03-07T06:27:01.206Z,1.93
2023-03-07T06:29:29.765Z,2.13
2023-03-07T06:31:58.326Z,0.80
2023-03-07T06:34:28.488Z,1.20
2023-03-07T06:36:57.067Z,0.97
2023-03-07T06:39:27.301Z,1.43
2023-03-07T06:41:56.245Z,1.53
2023-03-07T06:44:24.758Z,1.77
2023-03-07T06:46:53.390Z,1.93
2023-03-07T06:49:21.989Z,1.67
2023-03-07T06:51:51.956Z,0.90
2023-03-07T06:54:20.744Z,1.73
2023-03-07T06:56:49.400Z,1.00
2023-03-07T06:59:18.222Z,1.10
2023-03-07T07:01:48.587Z,0.90
2023-03-07T07:04:17.207Z,1.10
2023-03-07T07:06:46.005Z,0.90
2023-03-07T07:09:15.903Z,2.30
2023-03-07T07:11:44.463Z,1.10
2023-03-07T07:14:13.143Z,1.60
2023-03-07T07:16:41.757Z,1.60
2023-03-07T07:19:10.927Z,1.50
2023-03-07T07:21:39.478Z,0.87
2023-03-07T07:24:08.345Z,0.93
2023-03-07T07:26:38.570Z,0.60
2023-03-07T07:29:07.327Z,1.20
2023-03-07T07:31:35.963Z,1.53
2023-03-07T07:34:04.656Z,1.17
2023-03-07T07:36:34.300Z,1.40
2023-03-07T07:39:05.185Z,1.77
2023-03-07T07:41:33.815Z,1.77
2023-03-07T07:44:03.727Z,1.23
2023-03-07T07:46:32.260Z,0.97
2023-03-07T07:49:00.780Z,0.70
2023-03-07T07:51:29.518Z,0.90
2023-03-07T07:53:58.143Z,1.43
2023-03-07T07:56:26.891Z,0.73
2023-03-07T07:58:55.466Z,1.30
2023-03-07T08:01:27.057Z,1.63
2023-03-07T08:03:55.719Z,1.23
2023-03-07T08:06:26.496Z,1.13
2023-03-07T08:08:55.523Z,2.07
2023-03-07T08:11:24.491Z,1.23
2023-03-07T08:13:53.082Z,1.60
2023-03-07T08:16:24.465Z,0.80
2023-03-07T08:18:56.773Z,0.70
2023-03-07T08:21:26.328Z,0.60
2023-03-07T08:23:56.108Z,0.80
2023-03-07T08:26:24.781Z,1.00
2023-03-07T08:28:53.265Z,1.23
2023-03-07T08:31:25.257Z,1.63
2023-03-07T08:33:54.245Z,1.70
2023-03-07T08:36:22.884Z,0.90
2023-03-07T08:38:52.529Z,2.07
2023-03-07T08:41:22.424Z,1.13
2023-03-07T08:43:51.233Z,1.43
2023-03-07T08:46:19.943Z,2.97
2023-03-07T08:48:50.083Z,2.27
2023-03-07T08:51:19.363Z,2.80
2023-03-07T08:53:48.179Z,2.30
2023-03-07T08:56:18.447Z,4.03
2023-03-07T08:58:47.262Z,4.33
2023-03-07T09:01:15.866Z,2.83
2023-03-07T09:03:44.743Z,5.73
2023-03-07T09:06:19.797Z,4.73
2023-03-07T09:08:48.751Z,1.03
2023-03-07T09:11:18.531Z,4.50
2023-03-07T09:13:52.930Z,3.87
2023-03-07T09:16:22.634Z,2.67
2023-03-07T09:18:51.427Z,1.67
2023-03-07T09:21:21.342Z,3.03
2023-03-07T09:23:50.027Z,2.07
2023-03-07T09:26:18.689Z,0.53
2023-03-07T09:28:47.192Z,1.53
2023-03-07T09:31:17.419Z,1.80
2023-03-07T09:33:47.083Z,0.93
2023-03-07T09:36:17.902Z,1.37
2023-03-07T09:38:48.490Z,1.10
2023-03-07T09:41:33.057Z,1.30
2023-03-07T09:44:11.976Z,1.07
2023-03-07T09:46:50.278Z,1.23
2023-03-07T09:49:21.420Z,0.80
2023-03-07T09:51:53.290Z,0.87
2023-03-07T09:54:27.126Z,0.70
2023-03-07T09:56:58.478Z,1.10
2023-03-07T09:59:36.114Z,0.77
2023-03-07T10:02:15.812Z,1.67
2023-03-07T10:04:50.929Z,0.47
2023-03-07T10:07:21.893Z,0.40
2023-03-07T10:09:55.327Z,0.50
2023-03-07T10:12:52.606Z,0.70
2023-03-07T10:15:42.240Z,0.53
2023-03-07T10:18:36.981Z,0.90
2023-03-07T10:21:15.506Z,0.63
2023-03-07T10:24:08.089Z,1.07
2023-03-07T10:26:45.598Z,2.67
2023-03-07T10:29:19.048Z,1.70
2023-03-07T10:31:53.138Z,1.63
2023-03-07T10:34:27.873Z,2.03
2023-03-07T10:37:08.904Z,1.57
2023-03-07T10:39:44.624Z,1.10
2023-03-07T10:42:17.564Z,1.00
2023-03-07T10:44:48.858Z,0.80
2023-03-07T10:47:21.888Z,1.57
2023-03-07T10:49:52.382Z,1.17
2023-03-07T10:52:33.210Z,1.97
2023-03-07T10:55:32.503Z,1.83
2023-03-07T10:58:17.114Z,1.10
2023-03-07T11:00:47.113Z,2.10
2023-03-07T11:03:28.933Z,2.63
2023-03-07T11:05:57.469Z,1.20
2023-03-07T11:08:32.412Z,1.00
2023-03-07T11:11:02.773Z,0.70
2023-03-07T11:13:34.032Z,0.83
2023-03-07T11:16:19.821Z,0.77
2023-03-07T11:18:49.119Z,1.77
2023-03-07T11:21:33.382Z,1.03
2023-03-07T11:24:04.707Z,1.20
2023-03-07T11:26:39.467Z,1.23
2023-03-07T11:29:14.865Z,0.60
2023-03-07T11:31:52.339Z,0.67
2023-03-07T11:34:38.936Z,1.03
2023-03-07T11:37:29.247Z,0.70
2023-03-07T11:40:12.976Z,0.40
2023-03-07T11:42:46.603Z,0.70
2023-03-07T11:45:32.273Z,0.80
2023-03-07T11:48:16.794Z,0.60
2023-03-07T11:50:52.232Z,1.20
2023-03-07T11:53:36.006Z,0.60
2023-03-07T11:56:31.000Z,0.83
2023-03-07T11:59:24.977Z,0.70
2023-03-07T12:01:58.427Z,0.90
2023-03-07T12:04:52.819Z,0.40
2023-03-07T12:07:46.255Z,0.63
2023-03-07T12:10:28.030Z,0.30
2023-03-07T12:13:11.887Z,0.70
2023-03-07T12:15:48.325Z,1.20
2023-03-07T12:18:39.512Z,1.03
2023-03-07T12:21:24.179Z,0.53
2023-03-07T12:23:57.715Z,1.00
2023-03-07T12:26:34.157Z,0.63
2023-03-07T12:29:08.136Z,0.87
2023-03-07T12:31:40.738Z,0.50
2023-03-07T12:34:20.022Z,0.57
2023-03-07T12:36:53.544Z,0.40
2023-03-07T12:39:26.706Z,1.03
2023-03-07T12:42:02.853Z,0.90
2023-03-07T12:44:40.248Z,1.20
2023-03-07T12:47:18.002Z,1.30
2023-03-07T12:49:55.053Z,0.67
2023-03-07T12:52:35.424Z,0.43
2023-03-07T12:55:15.071Z,0.43
2023-03-07T12:57:50.180Z,1.07
2023-03-07T13:00:22.899Z,0.70
2023-03-07T13:02:59.403Z,0.60
2023-03-07T13:05:30.640Z,0.40
2023-03-07T13:07:59.712Z,0.67
2023-03-07T13:10:29.073Z,0.40
2023-03-07T13:12:57.644Z,0.97
2023-03-07T13:16:08.618Z,0.40
2023-03-07T13:18:37.256Z,0.40
2023-03-07T13:21:12.867Z,0.40
2023-03-07T13:23:41.618Z,0.43
2023-03-07T13:26:13.619Z,0.50
2023-03-07T13:28:52.769Z,0.97
2023-03-07T13:31:44.784Z,0.40
2023-03-07T13:34:51.236Z,0.57
2023-03-07T13:37:52.610Z,0.40
2023-03-07T13:40:27.359Z,0.40
2023-03-07T13:42:55.959Z,0.80
2023-03-07T13:45:52.684Z,0.40
2023-03-07T13:49:01.829Z,0.40
2023-03-07T13:51:30.456Z,1.07
2023-03-07T13:54:04.213Z,0.50
2023-03-07T13:56:38.251Z,0.50
2023-03-07T13:59:21.533Z,0.50
2023-03-07T14:01:58.637Z,0.40
2023-03-07T14:04:39.793Z,0.67
2023-03-07T14:07:21.307Z,0.60
2023-03-07T14:09:53.248Z,0.50
2023-03-07T14:12:34.271Z,0.40
2023-03-07T14:15:14.200Z,0.50
2023-03-07T14:18:00.335Z,0.60
2023-03-07T14:20:46.801Z,0.40
2023-03-07T14:23:28.233Z,0.63
2023-03-07T14:26:08.762Z,0.73
2023-03-07T14:28:37.408Z,0.60
2023-03-07T14:31:06.576Z,0.50
2023-03-07T14:33:37.068Z,0.50
2023-03-07T14:36:17.722Z,0.43
2023-03-07T14:38:47.771Z,0.40
2023-03-07T14:41:38.012Z,0.40
2023-03-07T14:44:46.555Z,0.60
2023-03-07T14:47:37.588Z,0.50
2023-03-07T14:50:15.447Z,0.50
2023-03-07T14:52:46.104Z,0.50
2023-03-07T14:55:20.027Z,0.80
2023-03-07T14:57:53.095Z,0.50
2023-03-07T15:00:28.399Z,0.37
2023-03-07T15:02:59.826Z,1.30
2023-03-07T15:05:30.350Z,0.37
2023-03-07T15:07:59.006Z,0.40
2023-03-07T15:10:31.909Z,0.40
2023-03-07T15:13:06.177Z,0.40
2023-03-07T15:15:38.656Z,0.40
2023-03-07T15:18:14.870Z,0.50
2023-03-07T15:20:44.868Z,0.40
2023-03-07T15:23:21.307Z,0.50
2023-03-07T15:25:50.709Z,0.40
2023-03-07T15:28:22.412Z,0.47
2023-03-07T15:30:53.787Z,0.50
2023-03-07T15:33:27.735Z,0.90
2023-03-07T15:36:19.974Z,0.50
2023-03-07T15:38:49.567Z,0.87
2023-03-07T15:41:36.867Z,0.50
2023-03-07T15:44:17.512Z,0.87
2023-03-07T15:46:49.230Z,0.50
2023-03-07T15:49:24.200Z,0.50
2023-03-07T15:51:55.634Z,0.50
2023-03-07T15:54:33.413Z,0.43
2023-03-07T15:57:05.906Z,0.53
2023-03-07T15:59:39.379Z,0.60
2023-03-07T16:02:34.976Z,0.50
2023-03-07T16:05:06.570Z,0.80
2023-03-07T16:07:35.185Z,0.60
2023-03-07T16:10:03.710Z,0.50
2023-03-07T16:12:33.060Z,0.50
2023-03-07T16:15:05.256Z,0.60
2023-03-07T16:17:38.193Z,0.40
2023-03-07T16:20:16.119Z,0.50
2023-03-07T16:22:44.879Z,1.07
2023-03-07T16:25:13.574Z,0.50
2023-03-07T16:27:42.568Z,0.43
2023-03-07T16:30:16.701Z,0.40
2023-03-07T16:32:45.545Z,0.83
2023-03-07T16:35:17.343Z,0.50
2023-03-07T16:37:46.205Z,0.50
2023-03-07T16:40:16.087Z,0.57
2023-03-07T16:42:47.543Z,0.43
2023-03-07T16:45:25.008Z,0.60
2023-03-07T16:47:54.691Z,0.40
2023-03-07T16:50:26.237Z,0.60
2023-03-07T16:52:55.019Z,0.40
2023-03-07T16:55:24.648Z,0.50
2023-03-07T16:57:55.953Z,0.40
2023-03-07T17:00:27.892Z,0.73
2023-03-07T17:02:59.844Z,0.50
2023-03-07T17:05:30.516Z,0.47
2023-03-07T17:07:59.899Z,0.60
2023-03-07T17:10:29.329Z,0.33
2023-03-07T17:12:59.933Z,0.43
2023-03-07T17:15:32.499Z,0.50
2023-03-07T17:18:01.814Z,0.67
2023-03-07T17:20:30.774Z,0.40
2023-03-07T17:22:59.979Z,0.50
2023-03-07T17:25:29.405Z,0.40
2023-03-07T17:28:02.799Z,0.60
2023-03-07T17:30:33.911Z,0.40
2023-03-07T17:33:02.477Z,0.43
2023-03-07T17:35:31.341Z,0.50
2023-03-07T17:37:59.910Z,0.40
2023-03-07T17:40:28.551Z,0.50
2023-03-07T17:42:59.227Z,0.43
2023-03-07T17:45:28.058Z,0.50
2023-03-07T17:47:57.944Z,0.40
2023-03-07T17:50:26.530Z,0.40
2023-03-07T17:52:55.884Z,0.40
2023-03-07T17:55:26.016Z,0.60
2023-03-07T17:57:54.666Z,0.40
2023-03-07T18:00:24.035Z,0.80
2023-03-07T18:02:53.268Z,0.53
2023-03-07T18:05:25.929Z,0.40
2023-03-07T18:07:55.287Z,0.63
2023-03-07T18:10:24.232Z,0.97
2023-03-07T18:12:54.381Z,0.50
2023-03-07T18:15:23.868Z,0.77
2023-03-07T18:17:52.564Z,0.40
2023-03-07T18:20:25.380Z,0.50
2023-03-07T18:22:53.981Z,0.40
2023-03-07T18:25:25.460Z,0.40
2023-03-07T18:27:54.455Z,0.50
2023-03-07T18:30:23.530Z,0.80
2023-03-07T18:32:53.655Z,0.60
2023-03-07T18:35:23.470Z,1.23
2023-03-07T18:37:53.384Z,0.50
2023-03-07T18:40:22.892Z,0.60
2023-03-07T18:42:51.411Z,0.57
2023-03-07T18:45:20.070Z,0.70
2023-03-07T18:47:48.633Z,1.00
2023-03-07T18:50:17.544Z,1.63
2023-03-07T18:52:46.176Z,2.03
2023-03-07T18:55:16.237Z,3.17
2023-03-07T18:57:44.811Z,1.03
2023-03-07T19:00:15.326Z,1.70
2023-03-07T19:02:44.052Z,1.03
2023-03-07T19:05:13.149Z,3.90
2023-03-07T19:07:41.912Z,2.40
2023-03-07T19:10:11.994Z,1.53
2023-03-07T19:12:42.785Z,0.47
2023-03-07T19:15:12.277Z,1.50
2023-03-07T19:17:42.493Z,1.87
2023-03-07T19:20:12.472Z,2.27
2023-03-07T19:22:41.099Z,2.00
2023-03-07T19:25:10.869Z,1.30
2023-03-07T19:27:39.523Z,2.07
2023-03-07T19:30:12.021Z,2.47
2023-03-07T19:32:40.651Z,1.97
2023-03-07T19:35:09.833Z,1.47
2023-03-07T19:37:38.582Z,1.23
2023-03-07T19:40:08.705Z,0.70
2023-03-07T19:42:37.376Z,0.40
2023-03-07T19:45:08.793Z,1.03
2023-03-07T19:47:37.435Z,0.90
2023-03-07T19:50:06.602Z,1.03
2023-03-07T19:52:35.160Z,1.33
2023-03-07T19:55:03.804Z,0.60
2023-03-07T19:57:32.354Z,0.53
2023-03-07T20:00:00.916Z,0.60
2023-03-07T20:02:30.909Z,1.33
2023-03-07T20:05:00.169Z,1.63
2023-03-07T20:07:28.792Z,0.73
2023-03-07T20:09:57.450Z,0.73
2023-03-07T20:12:26.260Z,0.80
2023-03-07T20:14:54.968Z,0.83
2023-03-07T20:17:24.267Z,0.67
2023-03-07T20:19:55.319Z,0.60
2023-03-07T20:22:24.472Z,0.60
2023-03-07T20:24:53.420Z,0.53
2023-03-07T20:27:23.617Z,0.87
2023-03-07T20:29:52.429Z,0.77
2023-03-07T20:32:21.174Z,0.53
2023-03-07T20:34:54.418Z,0.70
2023-03-07T20:37:22.955Z,0.50
2023-03-07T20:39:51.483Z,0.80
2023-03-07T20:42:20.007Z,0.70
2023-03-07T20:44:49.642Z,1.00
2023-03-07T20:47:18.350Z,0.73
2023-03-07T20:49:47.183Z,1.20
2023-03-07T20:52:17.123Z,0.83
2023-03-07T20:54:45.688Z,0.90
2023-03-07T20:57:14.302Z,0.57
2023-03-07T20:59:43.429Z,0.90
2023-03-07T21:02:12.078Z,0.63
2023-03-07T21:04:40.868Z,0.60
2023-03-07T21:07:09.443Z,1.30
2023-03-07T21:09:41.870Z,0.73
2023-03-07T21:12:12.941Z,1.10
2023-03-07T21:14:41.950Z,0.70
2023-03-07T21:17:12.569Z,0.60
2023-03-07T21:19:41.312Z,0.93
2023-03-07T21:22:09.845Z,0.90
2023-03-07T21:24:39.936Z,0.77
2023-03-07T21:27:08.671Z,1.23
2023-03-07T21:29:37.398Z,0.87
2023-03-07T21:32:06.399Z,1.00
2023-03-07T21:34:34.966Z,1.37
2023-03-07T21:37:03.476Z,0.97
2023-03-07T21:39:32.026Z,1.10
2023-03-07T21:42:01.933Z,0.93
2023-03-07T21:44:30.925Z,0.53
2023-03-07T21:46:59.845Z,0.87
2023-03-07T21:49:28.687Z,0.40
2023-03-07T21:51:57.228Z,0.40
2023-03-07T21:54:25.932Z,0.87
2023-03-07T21:56:54.787Z,0.80
2023-03-07T21:59:28.178Z,1.07
2023-03-07T22:01:56.904Z,0.50
2023-03-07T22:04:26.005Z,0.80
2023-03-07T22:06:54.680Z,0.73
2023-03-07T22:09:23.883Z,0.50
2023-03-07T22:11:52.953Z,0.77
2023-03-07T22:14:22.917Z,0.73
2023-03-07T22:16:51.532Z,0.47
2023-03-07T22:19:20.084Z,0.40
2023-03-07T22:21:48.705Z,0.50
2023-03-07T22:24:17.254Z,0.43
2023-03-07T22:26:46.380Z,1.10
2023-03-07T22:29:14.898Z,0.33
2023-03-07T22:31:44.830Z,0.40
2023-03-07T22:34:13.356Z,0.40
2023-03-07T22:36:41.818Z,0.50
2023-03-07T22:39:11.685Z,0.47
2023-03-07T22:41:40.415Z,0.87
2023-03-07T22:44:08.974Z,0.53
2023-03-07T22:46:37.507Z,0.50
2023-03-07T22:49:07.493Z,0.73
2023-03-07T22:51:37.449Z,0.40
2023-03-07T22:54:06.680Z,0.50
2023-03-07T22:56:36.129Z,0.30
2023-03-07T22:59:06.304Z,0.80
2023-03-07T23:01:34.903Z,0.60
2023-03-07T23:04:06.081Z,0.50
2023-03-07T23:06:37.442Z,0.97
2023-03-07T23:09:07.923Z,0.60
2023-03-07T23:11:37.144Z,0.90
2023-03-07T23:14:05.773Z,0.50
2023-03-07T23:16:36.241Z,0.50
2023-03-07T23:19:05.617Z,0.60
2023-03-07T23:21:36.232Z,1.10
2023-03-07T23:24:05.784Z,0.50
2023-03-07T23:26:35.799Z,0.60
2023-03-07T23:29:05.692Z,1.00
2023-03-07T23:31:36.812Z,0.50
2023-03-07T23:34:07.449Z,0.60
2023-03-07T23:36:37.627Z,0.70
2023-03-07T23:39:06.767Z,0.40
2023-03-07T23:41:35.349Z,0.53
2023-03-07T23:44:04.023Z,0.63
2023-03-07T23:46:33.525Z,0.63
2023-03-07T23:49:02.084Z,0.50
2023-03-07T23:51:30.940Z,0.40
2023-03-07T23:54:00.833Z,0.50
2023-03-07T23:56:29.364Z,0.87
2023-03-07T23:58:57.941Z,0.60
